createdAt,value
2023-05-07T00:03:02.464Z,12.11
2023-05-07T00:08:04.527Z,12.01
2023-05-07T00:13:06.111Z,11.87
2023-05-07T00:18:07.831Z,11.77
2023-05-07T00:23:10.302Z,11.70
2023-05-07T00:28:11.848Z,11.68
2023-05-07T00:33:13.591Z,11.62
2023-05-07T00:38:15.501Z,11.60
2023-05-07T00:43:17.256Z,11.54
2023-05-07T00:48:19.538Z,11.46
2023-05-07T00:53:21.714Z,11.25
2023-05-07T00:58:23.853Z,11.17
2023-05-07T01:03:25.379Z,11.12
2023-05-07T01:08:30.483Z,11.17
2023-05-07T01:13:32.361Z,11.13
2023-05-07T01:18:33.927Z,11.21
2023-05-07T01:23:36.959Z,11.19
2023-05-07T01:28:38.504Z,11.12
2023-05-07T01:33:43.620Z,11.09
2023-05-07T01:38:48.165Z,11.03
2023-05-07T01:43:52.867Z,10.93
2023-05-07T01:48:54.906Z,10.81
2023-05-07T01:53:56.596Z,10.66
2023-05-07T01:58:58.656Z,10.54
2023-05-07T02:04:00.635Z,10.50
2023-05-07T02:09:04.482Z,10.54
2023-05-07T02:14:06.491Z,10.48
2023-05-07T02:19:08.142Z,10.36
2023-05-07T02:24:09.853Z,10.31
2023-05-07T02:29:11.398Z,10.28
2023-05-07T02:34:14.204Z,10.25
2023-05-07T02:39:16.516Z,10.35
2023-05-07T02:44:18.170Z,10.35
2023-05-07T02:49:23.208Z,10.31
2023-05-07T02:54:24.949Z,10.32
2023-05-07T02:59:27.269Z,10.29
2023-05-07T03:04:29.096Z,10.26
2023-05-07T03:09:30.859Z,10.29
2023-05-07T03:14:32.433Z,10.17
2023-05-07T03:19:34.059Z,10.00
2023-05-07T03:24:35.863Z,9.93
2023-05-07T03:29:37.598Z,9.88
2023-05-07T03:34:39.441Z,9.94
2023-05-07T03:39:41.968Z,9.87
2023-05-07T03:44:44.101Z,9.78
2023-05-07T03:49:45.936Z,9.69
2023-05-07T03:54:49.243Z,9.61
2023-05-07T03:59:51.689Z,9.54
2023-05-07T04:04:53.465Z,9.47
2023-05-07T04:09:55.946Z,9.50
2023-05-07T04:14:57.754Z,9.56
2023-05-07T04:19:59.584Z,9.58
2023-05-07T04:25:02.209Z,9.61
2023-05-07T04:30:04.720Z,9.66
2023-05-07T04:35:11.205Z,9.71
2023-05-07T04:40:14.239Z,9.76
2023-05-07T04:45:17.266Z,9.88
2023-05-07T04:50:21.022Z,10.03
2023-05-07T04:55:24.183Z,10.24
2023-05-07T05:00:26.252Z,10.45
2023-05-07T05:05:29.377Z,10.68
2023-05-07T05:10:31.038Z,10.94
2023-05-07T05:15:34.066Z,11.13
2023-05-07T05:20:36.980Z,11.40
2023-05-07T05:25:40.329Z,11.82
2023-05-07T05:30:43.734Z,12.30
2023-05-07T05:35:45.939Z,12.68
2023-05-07T05:40:48.641Z,13.22
2023-05-07T05:45:50.888Z,13.68
2023-05-07T05:50:52.584Z,14.25
2023-05-07T05:55:54.628Z,14.58
2023-05-07T06:00:57.552Z,14.98
2023-05-07T06:06:01.523Z,15.19
2023-05-07T06:11:04.028Z,15.35
2023-05-07T06:16:08.622Z,15.49
2023-05-07T06:21:11.160Z,15.91
2023-05-07T06:26:13.348Z,16.72
2023-05-07T06:31:22.708Z,17.63
2023-05-07T06:36:36.042Z,18.35
2023-05-07T06:41:45.826Z,18.44
2023-05-07T06:46:58.033Z,18.20
2023-05-07T06:51:59.647Z,18.24
2023-05-07T06:57:01.686Z,17.97
2023-05-07T07:02:04.280Z,17.99
2023-05-07T07:07:05.912Z,18.30
2023-05-07T07:12:07.666Z,18.52
2023-05-07T07:17:12.000Z,18.48
2023-05-07T07:22:13.871Z,18.52
2023-05-07T07:27:21.142Z,18.71
2023-05-07T07:32:22.823Z,18.85
2023-05-07T07:37:26.657Z,18.81
2023-05-07T07:42:30.192Z,18.75
2023-05-07T07:47:32.605Z,18.72
2023-05-07T07:52:34.882Z,18.71
2023-05-07T07:57:36.678Z,18.73
2023-05-07T08:02:38.898Z,18.89
2023-05-07T08:07:40.662Z,19.10
2023-05-07T08:12:42.748Z,19.27
2023-05-07T08:17:44.989Z,19.54
2023-05-07T08:22:46.835Z,19.76
2023-05-07T08:27:48.542Z,19.99
2023-05-07T08:32:51.104Z,19.86
2023-05-07T08:37:52.824Z,19.92
2023-05-07T08:42:57.452Z,20.20
2023-05-07T08:48:02.654Z,20.40
2023-05-07T08:53:08.402Z,20.46
2023-05-07T08:58:10.306Z,20.78
2023-05-07T09:03:15.912Z,21.14
2023-05-07T09:08:26.054Z,21.42
2023-05-07T09:13:31.460Z,21.52
2023-05-07T09:18:35.076Z,21.66
2023-05-07T09:23:37.150Z,21.88
2023-05-07T09:28:40.945Z,21.67
2023-05-07T09:33:43.519Z,21.37
2023-05-07T09:38:47.398Z,21.52
2023-05-07T09:43:55.571Z,21.71
2023-05-07T09:49:03.002Z,21.97
2023-05-07T09:54:08.217Z,22.15
2023-05-07T09:59:15.592Z,22.32
2023-05-07T10:04:18.558Z,22.56
2023-05-07T10:09:22.276Z,22.51
2023-05-07T10:14:24.919Z,22.64
2023-05-07T10:19:27.472Z,22.83
2023-05-07T10:24:35.123Z,22.92
2023-05-07T10:30:09.814Z,22.92
2023-05-07T10:35:22.677Z,23.07
2023-05-07T10:40:25.467Z,23.21
2023-05-07T10:45:30.041Z,23.45
2023-05-07T10:50:34.617Z,23.63
2023-05-07T10:55:38.521Z,23.88
2023-05-07T11:00:45.727Z,24.13
2023-05-07T11:06:15.314Z,24.05
2023-05-07T11:11:57.375Z,24.01
2023-05-07T11:17:10.459Z,24.46
2023-05-07T11:22:31.295Z,24.86
2023-05-07T11:27:42.919Z,25.15
2023-05-07T11:32:47.853Z,25.38
2023-05-07T11:37:58.797Z,25.49
2023-05-07T11:43:11.813Z,25.43
2023-05-07T11:48:14.659Z,25.70
2023-05-07T11:53:18.154Z,26.07
2023-05-07T11:58:25.234Z,26.37
2023-05-07T12:03:29.574Z,26.67
2023-05-07T12:08:32.674Z,27.13
2023-05-07T12:13:34.204Z,27.36
2023-05-07T12:18:37.577Z,27.32
2023-05-07T12:23:39.533Z,27.44
2023-05-07T12:28:41.160Z,27.74
2023-05-07T12:33:43.301Z,28.02
2023-05-07T12:38:44.857Z,28.07
2023-05-07T12:43:47.066Z,28.23
2023-05-07T12:48:49.495Z,28.51
2023-05-07T12:53:51.068Z,28.58
2023-05-07T12:58:52.590Z,28.46
2023-05-07T13:03:54.273Z,28.51
2023-05-07T13:08:55.908Z,28.52
2023-05-07T13:13:57.422Z,28.22
2023-05-07T13:18:59.291Z,28.28
2023-05-07T13:24:00.892Z,28.18
2023-05-07T13:29:02.502Z,28.07
2023-05-07T13:34:04.047Z,28.07
2023-05-07T13:39:05.619Z,27.76
2023-05-07T13:44:07.159Z,27.48
2023-05-07T13:49:08.804Z,27.47
2023-05-07T13:54:10.477Z,27.25
2023-05-07T13:59:13.519Z,27.36
2023-05-07T14:04:15.167Z,27.65
2023-05-07T14:09:16.870Z,27.50
2023-05-07T14:14:19.248Z,27.16
2023-05-07T14:19:20.873Z,26.96
2023-05-07T14:24:34.856Z,26.84
2023-05-07T14:29:39.522Z,26.79
2023-05-07T14:34:41.114Z,26.48
2023-05-07T14:39:42.671Z,26.38
2023-05-07T14:44:45.776Z,26.22
2023-05-07T14:49:47.357Z,26.35
2023-05-07T14:54:48.880Z,26.34
2023-05-07T14:59:50.505Z,26.25
2023-05-07T15:04:52.059Z,26.23
2023-05-07T15:09:53.733Z,26.21
2023-05-07T15:14:55.339Z,26.25
2023-05-07T15:19:56.944Z,26.14
2023-05-07T15:24:59.786Z,25.94
2023-05-07T15:30:01.930Z,25.68
2023-05-07T15:35:04.762Z,25.55
2023-05-07T15:40:08.048Z,25.23
2023-05-07T15:45:10.824Z,24.95
2023-05-07T15:50:12.622Z,24.74
2023-05-07T15:55:15.017Z,24.47
2023-05-07T16:00:17.966Z,24.02
2023-05-07T16:05:19.550Z,23.45
2023-05-07T16:10:21.140Z,23.20
2023-05-07T16:15:22.790Z,22.96
2023-05-07T16:20:29.983Z,22.67
2023-05-07T16:25:32.096Z,22.29
2023-05-07T16:30:33.916Z,22.01
2023-05-07T16:35:35.703Z,21.67
2023-05-07T16:40:40.473Z,21.04
2023-05-07T16:45:42.176Z,20.63
2023-05-07T16:50:44.546Z,20.34
2023-05-07T16:55:46.097Z,19.95
2023-05-07T17:00:51.036Z,19.72
2023-05-07T17:05:53.252Z,19.37
2023-05-07T17:10:54.840Z,19.02
2023-05-07T17:15:56.459Z,18.70
2023-05-07T17:20:58.144Z,18.40
2023-05-07T17:25:59.736Z,18.17
2023-05-07T17:31:01.338Z,17.76
2023-05-07T17:36:03.304Z,17.36
2023-05-07T17:41:07.294Z,17.08
2023-05-07T17:46:09.855Z,16.84
2023-05-07T17:51:11.555Z,16.64
2023-05-07T17:56:13.135Z,16.46
2023-05-07T18:01:14.764Z,16.38
2023-05-07T18:06:19.117Z,16.16
2023-05-07T18:11:21.865Z,16.05
2023-05-07T18:16:23.685Z,15.93
2023-05-07T18:21:25.405Z,15.77
2023-05-07T18:26:27.007Z,15.69
2023-05-07T18:31:28.688Z,15.58
2023-05-07T18:36:30.653Z,15.50
2023-05-07T18:41:32.320Z,15.42
2023-05-07T18:46:34.048Z,15.41
2023-05-07T18:51:35.784Z,15.30
2023-05-07T18:56:37.341Z,15.27
2023-05-07T19:01:39.012Z,15.35
2023-05-07T19:06:40.695Z,15.25
2023-05-07T19:11:42.470Z,15.26
2023-05-07T19:16:44.134Z,15.15
2023-05-07T19:21:45.817Z,14.92
2023-05-07T19:26:47.348Z,14.83
2023-05-07T19:31:48.951Z,14.81
2023-05-07T19:36:51.284Z,14.87
2023-05-07T19:41:52.817Z,14.94
2023-05-07T19:46:54.425Z,14.91
2023-05-07T19:51:57.181Z,14.96
2023-05-07T19:56:58.841Z,15.11
2023-05-07T20:02:00.563Z,15.20
2023-05-07T20:07:02.152Z,15.18
2023-05-07T20:12:03.942Z,15.13
2023-05-07T20:17:05.496Z,15.11
2023-05-07T20:22:07.060Z,15.08
2023-05-07T20:27:09.192Z,15.04
2023-05-07T20:32:10.829Z,15.00
2023-05-07T20:37:15.816Z,14.85
2023-05-07T20:42:17.518Z,14.77
2023-05-07T20:47:19.145Z,14.78
2023-05-07T20:52:21.156Z,14.80
2023-05-07T20:57:23.078Z,14.74
2023-05-07T21:02:24.735Z,14.67
2023-05-07T21:07:26.357Z,14.61
2023-05-07T21:12:28.070Z,14.70
2023-05-07T21:17:31.749Z,14.68
2023-05-07T21:22:33.657Z,14.61
2023-05-07T21:27:35.193Z,14.62
2023-05-07T21:32:36.775Z,14.61
2023-05-07T21:37:38.653Z,14.63
2023-05-07T21:42:40.208Z,14.61
2023-05-07T21:47:41.830Z,14.66
2023-05-07T21:52:43.425Z,14.66
2023-05-07T21:57:50.885Z,14.63
2023-05-07T22:03:03.527Z,14.55
2023-05-07T22:08:05.423Z,14.55
2023-05-07T22:13:06.979Z,14.55
2023-05-07T22:18:08.613Z,14.53
2023-05-07T22:23:10.377Z,14.43
2023-05-07T22:28:11.965Z,14.20
2023-05-07T22:33:13.487Z,14.14
2023-05-07T22:38:15.043Z,14.09
2023-05-07T22:43:16.591Z,14.06
2023-05-07T22:48:18.143Z,14.09
2023-05-07T22:53:20.181Z,14.08
2023-05-07T22:58:21.779Z,14.06
2023-05-07T23:03:23.679Z,14.02
2023-05-07T23:08:25.521Z,13.98
2023-05-07T23:13:27.616Z,13.90
2023-05-07T23:18:30.346Z,13.79
2023-05-07T23:23:34.348Z,13.74
2023-05-07T23:28:35.986Z,13.77
2023-05-07T23:33:38.878Z,13.81
2023-05-07T23:38:40.452Z,13.93
2023-05-07T23:43:42.044Z,14.06
2023-05-07T23:48:43.567Z,14.15
2023-05-07T23:53:45.808Z,14.25
2023-05-07T23:58:47.380Z,14.31
